JAF248 LATI-LGSA
Flight info
| Callsign | JAF248 |
|---|---|
| Flight time | N/A |
| Altitude | 35000 |
| Route | ELBAK DCT DIMIS UL604 TRL UJ65 SOKRI |
| Aircraft | B738/M-SDE2E3FGHIRWXY/LB1 |
Departure
| Time | 2026-05-08 17:42 |
|---|---|
| Airport | Tirana International Airport Mother Teresa (LATI) |
Arrival
| Time | N/A |
|---|---|
| Airport | Chania International Airport (LGSA) |
| Time | Latitude | Longitude | Altitude | Speed | Heading |
|---|---|---|---|---|---|
| 2026-05-08 17:34 | 41.42030 | 19.71504 | 116 ft | 0 kts | 265° |
| 2026-05-08 17:35 | 41.42030 | 19.71505 | 116 ft | 0 kts | 265° |
| 2026-05-08 17:35 | 41.42030 | 19.71515 | 116 ft | 2 kts | 265° |
| 2026-05-08 17:36 | 41.42032 | 19.71537 | 116 ft | 2 kts | 265° |
| 2026-05-08 17:36 | 41.42033 | 19.71559 | 116 ft | 2 kts | 265° |
| 2026-05-08 17:36 | 41.42035 | 19.71578 | 116 ft | 1 kts | 265° |
| 2026-05-08 17:36 | 41.42035 | 19.71583 | 116 ft | 0 kts | 265° |
| 2026-05-08 17:37 | 41.42035 | 19.71579 | 116 ft | 0 kts | 351° |
| 2026-05-08 17:38 | 41.42061 | 19.71573 | 116 ft | 10 kts | 351° |
| 2026-05-08 17:38 | 41.42183 | 19.71558 | 116 ft | 25 kts | 354° |
| 2026-05-08 17:39 | 41.42373 | 19.71532 | 116 ft | 26 kts | 354° |
| 2026-05-08 17:39 | 41.42538 | 19.71511 | 116 ft | 22 kts | 354° |
| 2026-05-08 17:39 | 41.42649 | 19.71507 | 116 ft | 12 kts | 23° |
| 2026-05-08 17:39 | 41.42670 | 19.71583 | 116 ft | 7 kts | 79° |
| 2026-05-08 17:40 | 41.42680 | 19.71672 | 116 ft | 10 kts | 83° |
| 2026-05-08 17:40 | 41.42686 | 19.71758 | 116 ft | 8 kts | 85° |
| 2026-05-08 17:40 | 41.42690 | 19.71828 | 116 ft | 7 kts | 86° |
| 2026-05-08 17:40 | 41.42663 | 19.71919 | 116 ft | 11 kts | 158° |
| 2026-05-08 17:41 | 41.42601 | 19.71918 | 116 ft | 0 kts | 168° |
| 2026-05-08 17:41 | 41.42601 | 19.71919 | 116 ft | 0 kts | 168° |
| 2026-05-08 17:41 | 41.42568 | 19.71927 | 116 ft | 29 kts | 169° |
| 2026-05-08 17:42 | 41.42063 | 19.71989 | 116 ft | 112 kts | 174° |
| 2026-05-08 17:42 | 41.41106 | 19.72142 | 523 ft | 141 kts | 171° |
| 2026-05-08 17:42 | 41.40085 | 19.72395 | 1301 ft | 159 kts | 167° |
| 2026-05-08 17:42 | 41.39047 | 19.72754 | 2343 ft | 145 kts | 163° |
| 2026-05-08 17:43 | 41.38148 | 19.73167 | 2996 ft | 137 kts | 158° |
| 2026-05-08 17:43 | 41.37156 | 19.73726 | 2901 ft | 177 kts | 155° |
| 2026-05-08 17:43 | 41.35911 | 19.74503 | 2684 ft | 216 kts | 154° |
| 2026-05-08 17:43 | 41.34509 | 19.75426 | 2828 ft | 228 kts | 153° |
| 2026-05-08 17:44 | 41.33122 | 19.76373 | 3419 ft | 217 kts | 152° |
| 2026-05-08 17:44 | 41.31855 | 19.77265 | 4244 ft | 194 kts | 151° |
| 2026-05-08 17:44 | 41.30753 | 19.78075 | 5146 ft | 168 kts | 150° |
| 2026-05-08 17:44 | 41.29785 | 19.78817 | 5803 ft | 158 kts | 149° |
| 2026-05-08 17:45 | 41.28801 | 19.79596 | 6068 ft | 173 kts | 151° |
| 2026-05-08 17:45 | 41.27605 | 19.80067 | 6275 ft | 189 kts | 179° |
| 2026-05-08 17:45 | 41.26315 | 19.79533 | 6465 ft | 205 kts | 213° |
| 2026-05-08 17:45 | 41.25379 | 19.78045 | 6620 ft | 220 kts | 244° |
| 2026-05-08 17:46 | 41.25129 | 19.75999 | 6758 ft | 234 kts | 274° |
| 2026-05-08 17:46 | 41.25669 | 19.73908 | 6892 ft | 247 kts | 297° |
| 2026-05-08 17:46 | 41.26446 | 19.71855 | 7026 ft | 256 kts | 287° |
| 2026-05-08 17:46 | 41.26564 | 19.69468 | 7242 ft | 258 kts | 260° |